Time;durP1;ratioP1;P1;durP2;ratioP2;P2;SDS_P1;SDS_P2;PMS_P1;PMS_P2;Temp;Humidity;BMP_temperature;BMP_pressure;BME280_temperature;BME280_humidity;BME280_pressure;Samples;Min_cycle;Max_cycle;Signal;HPM_P1;HPM_P2
2023/12/21 00:01:10;;;;;;;12.57;6.55;;;3.90;99.90;;;;;;4891909;29;20099;-73
2023/12/21 00:03:35;;;;;;;9.75;4.75;;;3.80;99.90;;;;;;4892625;29;20051;-72
2023/12/21 00:06:01;;;;;;;5.85;3.15;;;3.70;99.90;;;;;;4892893;29;20150;-74
2023/12/21 00:08:26;;;;;;;6.28;3.08;;;3.70;99.90;;;;;;4894680;29;21054;-74
2023/12/21 00:10:52;;;;;;;6.63;3.45;;;3.80;99.90;;;;;;4895151;29;20120;-73
2023/12/21 00:13:18;;;;;;;8.82;5.15;;;3.70;99.90;;;;;;4895060;29;20040;-73
2023/12/21 00:15:43;;;;;;;9.45;6.40;;;3.80;99.90;;;;;;4896431;29;20104;-73
2023/12/21 00:18:09;;;;;;;12.02;5.40;;;3.80;99.90;;;;;;4897114;29;20076;-73
2023/12/21 00:20:35;;;;;;;7.15;3.53;;;3.90;99.90;;;;;;4895445;29;20629;-73
2023/12/21 00:23:02;;;;;;;7.55;3.72;;;4.00;99.90;;;;;;4898713;29;20514;-72
2023/12/21 00:25:28;;;;;;;6.50;3.38;;;4.10;99.90;;;;;;4897119;29;20044;-73
2023/12/21 00:27:55;;;;;;;8.57;3.50;;;4.00;99.90;;;;;;4897505;29;20517;-73
2023/12/21 00:30:21;;;;;;;11.75;5.97;;;4.20;99.90;;;;;;4898820;29;20558;-73
2023/12/21 00:32:46;;;;;;;9.48;4.72;;;4.00;99.90;;;;;;4897360;29;20036;-73
2023/12/21 00:35:12;;;;;;;9.93;4.75;;;4.00;99.90;;;;;;4896437;29;20032;-73
2023/12/21 00:37:38;;;;;;;9.65;4.35;;;3.90;99.90;;;;;;4897787;29;20371;-73
2023/12/21 00:40:04;;;;;;;9.05;4.82;;;3.90;99.90;;;;;;4893869;29;20492;-73
2023/12/21 00:42:32;;;;;;;6.13;3.60;;;3.80;99.90;;;;;;4896043;29;20127;-73
2023/12/21 00:44:58;;;;;;;9.30;3.72;;;3.70;99.90;;;;;;4898648;29;20032;-73
2023/12/21 00:47:24;;;;;;;7.15;2.95;;;3.70;99.90;;;;;;4896707;29;20169;-73
2023/12/21 00:49:50;;;;;;;6.72;3.92;;;3.70;99.90;;;;;;4896938;29;20028;-73
2023/12/21 00:52:15;;;;;;;12.00;5.45;;;3.70;99.90;;;;;;4898589;29;20040;-73
2023/12/21 00:54:41;;;;;;;8.40;5.10;;;3.70;99.90;;;;;;4896328;29;20510;-73
2023/12/21 00:57:07;;;;;;;11.43;5.78;;;3.60;99.90;;;;;;4895573;29;20067;-73
2023/12/21 00:59:33;;;;;;;7.57;4.15;;;3.60;99.90;;;;;;4897877;29;20036;-73
2023/12/21 01:01:59;;;;;;;8.60;3.80;;;3.60;99.90;;;;;;4897164;29;20050;-72
2023/12/21 01:04:25;;;;;;;8.40;3.83;;;3.60;99.90;;;;;;4897301;29;20024;-73
2023/12/21 01:06:50;;;;;;;7.85;3.65;;;3.70;99.90;;;;;;4897055;29;20171;-73
2023/12/21 01:09:16;;;;;;;7.57;3.47;;;3.70;99.90;;;;;;4897978;29;20387;-73
2023/12/21 01:11:42;;;;;;;7.40;4.03;;;3.80;99.90;;;;;;4896823;29;20040;-73
2023/12/21 01:14:07;;;;;;;16.17;5.47;;;3.90;99.90;;;;;;4898852;29;20044;-72
2023/12/21 01:16:33;;;;;;;7.53;4.28;;;3.90;99.90;;;;;;4897098;29;20169;-73
2023/12/21 01:18:59;;;;;;;7.88;4.75;;;3.70;99.90;;;;;;4897774;29;20052;-73
2023/12/21 01:21:24;;;;;;;5.05;2.10;;;3.70;99.90;;;;;;4901489;29;20111;-73
2023/12/21 01:23:50;;;;;;;4.43;1.83;;;4.30;99.90;;;;;;4899980;29;20036;-73
2023/12/21 01:26:16;;;;;;;6.85;3.53;;;4.50;99.90;;;;;;4899301;29;20032;-74
2023/12/21 01:28:41;;;;;;;9.30;4.38;;;4.10;99.90;;;;;;4902256;29;20410;-73
2023/12/21 01:31:08;;;;;;;7.13;3.83;;;4.00;99.90;;;;;;4900745;29;20037;-73
2023/12/21 01:33:34;;;;;;;8.75;4.78;;;3.80;99.90;;;;;;4900753;29;20664;-73
2023/12/21 01:35:59;;;;;;;6.45;3.10;;;3.80;99.90;;;;;;4901593;29;20532;-72
2023/12/21 01:38:25;;;;;;;3.58;1.58;;;4.10;99.90;;;;;;4899611;29;20380;-72
2023/12/21 01:40:51;;;;;;;5.70;1.80;;;4.40;99.70;;;;;;4900371;29;20170;-73
2023/12/21 01:43:16;;;;;;;4.82;1.80;;;4.60;99.30;;;;;;4901372;29;20028;-73
2023/12/21 01:45:42;;;;;;;5.47;2.10;;;4.40;99.90;;;;;;4897962;29;20440;-73
2023/12/21 01:48:09;;;;;;;3.83;1.88;;;4.30;99.90;;;;;;4898822;29;20044;-73
2023/12/21 01:50:35;;;;;;;6.82;2.88;;;4.30;99.90;;;;;;4901997;29;20047;-73
2023/12/21 01:53:03;;;;;;;5.50;3.22;;;4.10;99.90;;;;;;4900316;29;20044;-73
2023/12/21 01:55:29;;;;;;;6.47;2.92;;;3.80;99.90;;;;;;4899204;29;20100;-73
2023/12/21 01:57:55;;;;;;;8.07;3.97;;;3.70;99.90;;;;;;4900716;29;20059;-73
2023/12/21 02:00:21;;;;;;;8.32;4.78;;;3.70;99.90;;;;;;4898778;29;20040;-73
2023/12/21 02:02:47;;;;;;;6.22;3.45;;;3.60;99.90;;;;;;4898582;29;20029;-73
2023/12/21 02:05:13;;;;;;;6.28;2.88;;;3.50;99.90;;;;;;4900508;29;20040;-73
2023/12/21 02:07:39;;;;;;;4.82;2.20;;;3.40;99.90;;;;;;4897711;29;20056;-73
2023/12/21 02:10:05;;;;;;;7.15;2.95;;;3.40;99.90;;;;;;4898994;29;20483;-73
2023/12/21 02:12:31;;;;;;;7.78;3.85;;;3.40;99.90;;;;;;4899958;29;20180;-73
2023/12/21 02:14:57;;;;;;;9.77;4.22;;;3.40;99.90;;;;;;4899925;29;20036;-73
2023/12/21 02:17:25;;;;;;;7.18;3.75;;;3.40;99.90;;;;;;4897089;29;20067;-73
2023/12/21 02:19:52;;;;;;;5.10;2.83;;;3.30;99.90;;;;;;4896391;29;20060;-73
2023/12/21 02:22:19;;;;;;;5.80;2.80;;;3.10;99.90;;;;;;4900818;29;20407;-73
2023/12/21 02:24:45;;;;;;;6.43;2.55;;;3.30;99.90;;;;;;4899254;29;20040;-73
2023/12/21 02:27:11;;;;;;;6.25;2.85;;;3.40;99.90;;;;;;4899875;29;20032;-73
2023/12/21 02:29:36;;;;;;;6.07;3.00;;;3.40;99.90;;;;;;4898274;29;20039;-73
2023/12/21 02:32:02;;;;;;;6.97;2.58;;;3.40;99.90;;;;;;4898412;29;20040;-73
2023/12/21 02:34:28;;;;;;;6.40;3.20;;;3.50;99.90;;;;;;4899279;29;20117;-73
2023/12/21 02:36:54;;;;;;;4.45;2.05;;;3.40;99.90;;;;;;4900963;29;20467;-72
2023/12/21 02:39:20;;;;;;;3.50;1.50;;;3.20;99.90;;;;;;4899298;29;20040;-73
2023/12/21 02:41:47;;;;;;;2.63;1.05;;;3.40;99.90;;;;;;4898561;29;20109;-73
2023/12/21 02:44:13;;;;;;;2.53;1.10;;;3.50;99.90;;;;;;4899461;29;20047;-73
2023/12/21 02:46:38;;;;;;;3.30;1.63;;;3.60;99.90;;;;;;4895977;29;20036;-73
2023/12/21 02:49:04;;;;;;;3.70;1.60;;;3.50;99.90;;;;;;4897561;29;20126;-73
2023/12/21 02:51:29;;;;;;;4.55;2.17;;;3.50;99.90;;;;;;4900242;29;20036;-72
2023/12/21 02:53:55;;;;;;;6.03;3.00;;;3.50;99.90;;;;;;4899726;29;20075;-73
2023/12/21 02:56:21;;;;;;;3.83;2.08;;;3.50;99.90;;;;;;4897880;29;21361;-73
2023/12/21 02:58:46;;;;;;;4.18;1.92;;;3.50;99.90;;;;;;4899879;29;20554;-72
2023/12/21 03:01:12;;;;;;;3.83;1.58;;;3.50;99.90;;;;;;4897784;29;20503;-72
2023/12/21 03:03:38;;;;;;;5.85;2.00;;;3.50;99.90;;;;;;4898301;29;20570;-73
2023/12/21 03:06:03;;;;;;;4.30;1.92;;;3.60;99.90;;;;;;4897352;29;20044;-73
2023/12/21 03:08:29;;;;;;;4.82;2.70;;;3.60;99.90;;;;;;4897000;29;20025;-73
2023/12/21 03:10:55;;;;;;;9.52;2.95;;;3.60;99.90;;;;;;4897769;29;20124;-73
2023/12/21 03:13:20;;;;;;;5.05;1.95;;;3.40;99.90;;;;;;4898613;29;20390;-72
2023/12/21 03:15:46;;;;;;;2.88;1.40;;;3.40;99.90;;;;;;4898013;29;20572;-73
2023/12/21 03:18:12;;;;;;;4.50;1.90;;;3.80;99.90;;;;;;4897624;29;20039;-73
2023/12/21 03:20:38;;;;;;;2.53;1.25;;;4.00;99.90;;;;;;4898767;29;20094;-73
2023/12/21 03:23:04;;;;;;;2.25;1.13;;;4.30;99.00;;;;;;4897900;29;20399;-73
2023/12/21 03:25:30;;;;;;;3.33;1.33;;;4.30;99.40;;;;;;4898949;29;20143;-73
2023/12/21 03:27:56;;;;;;;1.70;0.93;;;4.40;98.70;;;;;;4898510;29;20494;-73
2023/12/21 03:30:22;;;;;;;4.13;1.45;;;4.60;98.30;;;;;;4898658;29;20040;-73
2023/12/21 03:32:48;;;;;;;4.20;1.40;;;4.20;99.30;;;;;;4895723;29;20778;-73
2023/12/21 03:35:15;;;;;;;3.17;1.55;;;3.90;99.80;;;;;;4899699;29;20036;-74
2023/12/21 03:37:40;;;;;;;4.72;2.10;;;3.70;99.90;;;;;;4896648;29;20048;-73
2023/12/21 03:40:07;;;;;;;3.90;1.98;;;3.60;99.90;;;;;;4897271;29;20031;-73
2023/12/21 03:42:33;;;;;;;5.65;2.28;;;3.40;99.90;;;;;;4897598;29;20056;-73
2023/12/21 03:44:58;;;;;;;7.07;2.88;;;3.30;99.90;;;;;;4896675;29;20044;-73
2023/12/21 03:47:24;;;;;;;4.20;2.45;;;3.10;99.90;;;;;;4896390;29;20032;-73
2023/12/21 03:49:50;;;;;;;5.50;3.03;;;3.00;99.90;;;;;;4897671;29;20035;-73
2023/12/21 03:52:15;;;;;;;6.13;3.28;;;3.20;99.90;;;;;;4896435;29;20067;-73
2023/12/21 03:54:41;;;;;;;6.72;3.47;;;3.20;99.90;;;;;;4897461;29;20482;-72
2023/12/21 03:57:07;;;;;;;6.05;2.58;;;3.20;99.90;;;;;;4899366;29;21212;-73
2023/12/21 03:59:34;;;;;;;4.43;2.33;;;3.10;99.90;;;;;;4894416;29;20040;-73
2023/12/21 04:02:01;;;;;;;3.97;2.00;;;3.20;99.90;;;;;;4893594;29;20495;-73
2023/12/21 04:04:27;;;;;;;4.78;2.28;;;3.10;99.90;;;;;;4889187;29;20204;-73
2023/12/21 04:06:52;;;;;;;3.97;1.90;;;3.10;99.90;;;;;;4892419;29;20413;-72
2023/12/21 04:09:18;;;;;;;6.07;2.30;;;3.10;99.90;;;;;;4890696;29;20643;-73
2023/12/21 04:11:44;;;;;;;4.55;1.70;;;3.10;99.90;;;;;;4891514;29;20040;-73
2023/12/21 04:14:09;;;;;;;4.57;2.03;;;3.00;99.90;;;;;;4891189;29;20040;-72
2023/12/21 04:16:35;;;;;;;6.45;2.53;;;3.00;99.90;;;;;;4891067;29;20598;-73
2023/12/21 04:19:03;;;;;;;4.47;2.00;;;3.00;99.90;;;;;;4890553;29;20064;-73
2023/12/21 04:21:29;;;;;;;4.63;2.50;;;2.90;99.90;;;;;;4891056;29;20051;-73
2023/12/21 04:23:55;;;;;;;8.82;2.88;;;2.80;99.90;;;;;;4889498;29;20188;-73
2023/12/21 04:26:21;;;;;;;5.93;2.70;;;2.90;99.90;;;;;;4890945;29;20040;-73
2023/12/21 04:28:50;;;;;;;6.15;2.45;;;2.90;99.90;;;;;;4890333;29;20758;-73
2023/12/21 04:31:20;;;;;;;5.00;2.47;;;3.00;99.90;;;;;;4890817;29;20123;-73
2023/12/21 04:33:47;;;;;;;5.97;2.33;;;3.00;99.90;;;;;;4891654;29;20052;-73
2023/12/21 04:36:14;;;;;;;6.60;2.25;;;3.00;99.90;;;;;;4895216;29;20040;-73
2023/12/21 04:38:39;;;;;;;5.43;2.72;;;2.90;99.90;;;;;;4892603;29;20551;-72
2023/12/21 04:41:05;;;;;;;5.63;2.97;;;3.00;99.90;;;;;;4890012;29;20044;-73
2023/12/21 04:43:31;;;;;;;7.55;3.47;;;3.00;99.90;;;;;;4891344;29;20036;-73
2023/12/21 04:45:57;;;;;;;4.90;2.20;;;3.10;99.90;;;;;;4892449;29;20241;-73
2023/12/21 04:48:23;;;;;;;8.60;2.67;;;3.10;99.90;;;;;;4892537;29;20495;-73
2023/12/21 04:50:48;;;;;;;6.95;2.25;;;3.00;99.90;;;;;;4890940;29;20523;-73
2023/12/21 04:53:14;;;;;;;4.72;2.08;;;2.90;99.90;;;;;;4890118;29;20044;-73
2023/12/21 04:55:40;;;;;;;3.40;1.60;;;2.70;99.90;;;;;;4892820;29;20043;-73
2023/12/21 04:58:05;;;;;;;5.50;1.63;;;2.80;99.90;;;;;;4895435;29;20123;-73
2023/12/21 05:00:31;;;;;;;3.35;1.80;;;2.80;99.90;;;;;;4894260;29;20431;-73
2023/12/21 05:02:57;;;;;;;5.13;2.15;;;2.90;99.90;;;;;;4893760;29;20040;-72
2023/12/21 05:05:23;;;;;;;3.50;1.50;;;2.80;99.90;;;;;;4892324;29;20040;-73
2023/12/21 05:07:48;;;;;;;4.03;1.50;;;2.70;99.90;;;;;;4875735;29;20055;-73
2023/12/21 05:10:14;;;;;;;2.35;0.90;;;2.70;99.90;;;;;;4893482;29;20623;-73
2023/12/21 05:12:40;;;;;;;2.78;1.17;;;2.70;99.90;;;;;;4893176;29;20046;-73
2023/12/21 05:15:06;;;;;;;2.65;1.23;;;2.90;99.90;;;;;;4893701;29;20036;-73
2023/12/21 05:17:31;;;;;;;2.58;1.10;;;2.80;99.90;;;;;;4893559;29;20143;-73
2023/12/21 05:19:57;;;;;;;3.20;1.33;;;2.80;99.90;;;;;;4894057;29;20052;-73
2023/12/21 05:22:23;;;;;;;3.53;1.27;;;3.30;99.90;;;;;;4891887;29;20044;-73
2023/12/21 05:24:48;;;;;;;2.10;0.93;;;3.40;99.90;;;;;;4892541;29;20040;-73
2023/12/21 05:27:14;;;;;;;3.00;1.20;;;3.30;99.90;;;;;;4892274;29;20044;-73
2023/12/21 05:29:41;;;;;;;2.42;1.13;;;3.20;99.90;;;;;;4891540;29;20627;-73
2023/12/21 05:32:07;;;;;;;3.42;1.30;;;3.20;99.90;;;;;;4892310;29;20378;-73
2023/12/21 05:34:33;;;;;;;3.90;1.48;;;3.30;99.90;;;;;;4892979;29;20072;-73
2023/12/21 05:36:59;;;;;;;2.35;1.20;;;3.30;99.80;;;;;;4890817;29;20036;-73
2023/12/21 05:39:26;;;;;;;1.48;0.77;;;3.30;99.70;;;;;;4892224;29;20052;-73
2023/12/21 05:41:52;;;;;;;2.83;1.13;;;3.20;99.90;;;;;;4894314;29;20475;-73
2023/12/21 05:44:18;;;;;;;2.22;1.20;;;3.10;99.90;;;;;;4893216;29;20040;-73
2023/12/21 05:46:44;;;;;;;2.95;1.20;;;3.30;99.80;;;;;;4890548;29;20047;-73
2023/12/21 05:49:10;;;;;;;4.38;1.00;;;3.20;99.90;;;;;;4893366;29;20131;-72
2023/12/21 05:51:36;;;;;;;1.88;1.10;;;3.10;99.90;;;;;;4894020;29;20036;-73
2023/12/21 05:54:03;;;;;;;1.63;0.82;;;3.00;99.90;;;;;;4892143;29;20080;-73
2023/12/21 05:56:29;;;;;;;3.10;1.33;;;3.10;99.90;;;;;;4893896;29;20044;-73
2023/12/21 05:58:55;;;;;;;3.78;1.58;;;3.10;99.90;;;;;;4890775;29;20127;-73
2023/12/21 06:01:21;;;;;;;2.78;1.38;;;3.40;99.70;;;;;;4892324;29;20051;-73
2023/12/21 06:03:46;;;;;;;2.58;1.02;;;3.30;99.70;;;;;;4894645;29;20032;-72
2023/12/21 06:06:13;;;;;;;2.00;0.65;;;3.10;99.90;;;;;;4892849;29;20131;-73
2023/12/21 06:08:39;;;;;;;2.67;0.98;;;3.30;99.50;;;;;;4890843;29;20055;-73
2023/12/21 06:11:06;;;;;;;2.58;1.10;;;3.30;99.40;;;;;;4894200;29;20364;-73
2023/12/21 06:13:33;;;;;;;2.97;1.10;;;3.20;99.50;;;;;;4890977;29;20039;-73
2023/12/21 06:15:59;;;;;;;2.60;0.95;;;3.20;99.60;;;;;;4891305;29;20440;-73
2023/12/21 06:18:25;;;;;;;1.35;0.70;;;3.30;99.60;;;;;;4891359;29;20051;-73
2023/12/21 06:20:50;;;;;;;4.20;2.20;;;3.10;99.90;;;;;;4895528;29;20076;-73
2023/12/21 06:23:16;;;;;;;4.72;2.50;;;3.10;99.90;;;;;;4890584;29;20032;-73
2023/12/21 06:25:42;;;;;;;3.60;1.50;;;3.10;99.90;;;;;;4890528;29;20031;-72
2023/12/21 06:28:08;;;;;;;4.10;1.30;;;3.40;99.90;;;;;;4889202;29;20044;-72
2023/12/21 06:30:33;;;;;;;2.47;1.10;;;3.50;99.20;;;;;;4890116;29;20597;-73
2023/12/21 06:32:59;;;;;;;4.05;1.25;;;3.60;98.80;;;;;;4898501;29;20036;-74
2023/12/21 06:35:25;;;;;;;3.42;1.02;;;3.50;99.20;;;;;;4894771;29;20087;-74
2023/12/21 06:37:50;;;;;;;1.83;0.98;;;3.40;99.30;;;;;;4892290;29;20123;-74
2023/12/21 06:40:16;;;;;;;1.95;0.80;;;3.50;98.70;;;;;;4895174;29;20040;-76
2023/12/21 06:42:42;;;;;;;1.08;0.68;;;3.60;98.70;;;;;;4891553;29;20055;-74
2023/12/21 06:45:08;;;;;;;3.35;1.30;;;3.60;98.70;;;;;;4891657;29;20135;-75
2023/12/21 06:47:34;;;;;;;17.98;9.45;;;3.50;98.80;;;;;;4893969;29;20060;-75
2023/12/21 06:50:00;;;;;;;8.50;4.30;;;3.60;99.00;;;;;;4892447;29;20162;-75
2023/12/21 06:52:25;;;;;;;6.13;2.78;;;3.50;99.30;;;;;;4891229;29;20060;-76
2023/12/21 06:54:51;;;;;;;4.30;1.88;;;3.50;98.90;;;;;;4893160;29;20100;-76
2023/12/21 06:57:17;;;;;;;2.75;1.30;;;3.40;98.90;;;;;;4874562;29;20052;-76
2023/12/21 06:59:42;;;;;;;2.05;0.90;;;3.40;99.10;;;;;;4890175;29;20040;-76
2023/12/21 07:02:08;;;;;;;2.35;0.93;;;3.40;98.70;;;;;;4891132;29;20059;-75
2023/12/21 07:04:34;;;;;;;2.03;1.00;;;3.50;98.70;;;;;;4892547;29;20538;-75
2023/12/21 07:07:00;;;;;;;2.83;1.23;;;3.50;98.90;;;;;;4890925;29;20047;-75
2023/12/21 07:09:26;;;;;;;3.47;1.45;;;3.50;99.00;;;;;;4891322;29;20063;-75
2023/12/21 07:11:52;;;;;;;2.83;1.10;;;3.40;98.90;;;;;;4889857;29;20040;-75
2023/12/21 07:14:18;;;;;;;3.40;1.20;;;3.50;99.00;;;;;;4890256;29;20024;-75
2023/12/21 07:16:43;;;;;;;2.28;0.77;;;3.50;99.00;;;;;;4891930;29;20071;-76
2023/12/21 07:19:09;;;;;;;4.43;1.08;;;3.50;98.90;;;;;;4890620;29;20068;-75
2023/12/21 07:21:35;;;;;;;2.63;0.95;;;3.60;98.80;;;;;;4892233;29;20368;-76
2023/12/21 07:24:00;;;;;;;2.85;1.38;;;3.60;98.90;;;;;;4892740;29;20055;-75
2023/12/21 07:26:26;;;;;;;5.28;1.88;;;3.50;99.30;;;;;;4891407;29;25669;-75
2023/12/21 07:28:52;;;;;;;4.20;1.58;;;3.40;99.30;;;;;;4891371;29;20032;-75
2023/12/21 07:31:18;;;;;;;2.35;1.20;;;3.40;99.20;;;;;;4859619;29;20087;-75
2023/12/21 07:33:44;;;;;;;2.15;0.90;;;3.50;98.90;;;;;;4889676;29;20039;-75
2023/12/21 07:36:10;;;;;;;3.22;1.10;;;3.50;99.00;;;;;;4891859;29;20048;-75
2023/12/21 07:38:39;;;;;;;6.70;1.10;;;3.80;98.60;;;;;;4891993;29;20135;-75
2023/12/21 07:41:07;;;;;;;1.63;0.73;;;3.70;99.10;;;;;;4891547;29;20048;-75
2023/12/21 07:43:33;;;;;;;5.28;1.50;;;3.70;99.20;;;;;;4890520;29;20040;-75
2023/12/21 07:45:58;;;;;;;4.68;2.00;;;3.50;99.60;;;;;;4893781;29;20032;-76
2023/12/21 07:48:24;;;;;;;3.42;1.50;;;3.30;99.90;;;;;;4890873;29;20032;-76
2023/12/21 07:50:50;;;;;;;4.22;1.95;;;3.20;99.90;;;;;;4890191;29;20066;-76
2023/12/21 07:53:15;;;;;;;4.30;1.88;;;3.20;99.90;;;;;;4892247;29;20526;-75
2023/12/21 07:55:41;;;;;;;3.13;1.20;;;3.20;99.90;;;;;;4889824;29;20072;-74
2023/12/21 07:58:07;;;;;;;3.08;1.27;;;3.30;99.80;;;;;;4889820;29;20440;-75
2023/12/21 08:00:32;;;;;;;3.80;1.90;;;3.50;99.40;;;;;;4892046;29;20044;-74
2023/12/21 08:02:58;;;;;;;3.13;1.45;;;3.50;99.80;;;;;;4891153;29;20462;-74
2023/12/21 08:05:24;;;;;;;4.22;2.08;;;3.50;99.80;;;;;;4890117;29;20043;-74
2023/12/21 08:07:50;;;;;;;4.95;1.70;;;3.40;99.90;;;;;;4891936;29;21931;-77
2023/12/21 08:10:16;;;;;;;3.53;1.45;;;3.40;99.90;;;;;;4891086;29;20039;-75
2023/12/21 08:12:42;;;;;;;2.88;1.40;;;3.40;99.90;;;;;;4880824;29;20724;-75
2023/12/21 08:15:10;;;;;;;3.08;1.05;;;3.40;99.90;;;;;;4889828;29;20028;-72
2023/12/21 08:17:36;;;;;;;1.90;0.80;;;3.60;99.60;;;;;;4888704;29;21271;-75
2023/12/21 08:20:04;;;;;;;3.88;1.40;;;3.90;99.10;;;;;;4889794;29;21375;-75
2023/12/21 08:22:30;;;;;;;5.30;1.95;;;3.90;99.10;;;;;;4890825;29;20060;-75
2023/12/21 08:24:57;;;;;;;5.03;2.40;;;4.10;98.50;;;;;;4888401;29;20040;-75
2023/12/21 08:27:23;;;;;;;8.93;4.20;;;4.20;98.50;;;;;;4888620;29;20045;-75
2023/12/21 08:29:49;;;;;;;11.32;5.60;;;4.10;99.00;;;;;;4888725;29;20048;-74
2023/12/21 08:32:15;;;;;;;8.90;4.28;;;3.80;99.40;;;;;;4889210;29;20075;-74
2023/12/21 08:34:42;;;;;;;7.55;4.30;;;3.80;99.80;;;;;;4887885;29;20122;-75
2023/12/21 08:37:09;;;;;;;8.10;2.60;;;3.90;99.90;;;;;;4888286;29;20048;-75
2023/12/21 08:39:35;;;;;;;4.65;1.75;;;3.90;99.70;;;;;;4890600;29;21108;-74
2023/12/21 08:42:02;;;;;;;3.55;1.52;;;4.00;99.30;;;;;;4888845;29;20049;-74
2023/12/21 08:44:28;;;;;;;3.80;1.40;;;4.00;99.20;;;;;;4888338;29;20099;-74
2023/12/21 08:46:54;;;;;;;4.28;1.85;;;4.10;99.40;;;;;;4890593;29;20653;-74
2023/12/21 08:49:20;;;;;;;4.55;2.30;;;4.10;98.90;;;;;;4889112;29;20076;-75
2023/12/21 08:51:45;;;;;;;8.95;6.07;;;4.10;99.60;;;;;;4888740;29;20032;-74
2023/12/21 08:54:11;;;;;;;8.68;3.90;;;4.10;99.30;;;;;;4889252;29;20035;-74
2023/12/21 08:56:45;;;;;;;11.27;5.10;;;4.10;99.50;;;;;;4889113;29;20040;-74
2023/12/21 08:59:12;;;;;;;10.30;5.43;;;4.10;99.80;;;;;;4887072;29;20043;-74
2023/12/21 09:01:38;;;;;;;33.10;16.50;;;4.00;99.90;;;;;;4888118;29;20083;-74
2023/12/21 09:04:04;;;;;;;38.50;21.00;;;4.00;99.90;;;;;;4889366;29;20135;-73
2023/12/21 09:06:31;;;;;;;17.95;11.50;;;4.00;99.90;;;;;;4888506;29;20032;-74
2023/12/21 09:08:58;;;;;;;14.10;6.50;;;4.10;99.90;;;;;;4890902;29;20054;-75
2023/12/21 09:11:24;;;;;;;12.18;5.53;;;4.00;99.90;;;;;;4889442;29;25165;-76
2023/12/21 09:13:50;;;;;;;11.02;4.88;;;4.10;99.90;;;;;;4889652;29;21788;-75
2023/12/21 09:16:17;;;;;;;11.80;5.03;;;4.20;99.90;;;;;;4888339;29;20032;-74
2023/12/21 09:18:46;;;;;;;114.68;52.83;;;4.20;99.90;;;;;;4888621;29;20428;-75
2023/12/21 09:21:11;;;;;;;45.08;21.00;;;4.20;99.90;;;;;;4888017;29;20052;-75
2023/12/21 09:23:38;;;;;;;30.90;15.30;;;4.30;99.90;;;;;;4887258;29;20043;-75
2023/12/21 09:26:08;;;;;;;35.45;16.13;;;4.40;99.90;;;;;;4890676;29;20479;-74
2023/12/21 09:28:35;;;;;;;34.08;13.32;;;4.40;99.90;;;;;;4889102;29;20060;-74
2023/12/21 09:31:01;;;;;;;22.08;10.00;;;4.40;99.90;;;;;;4887599;29;20055;-75
2023/12/21 09:33:27;;;;;;;19.58;8.05;;;4.40;99.90;;;;;;4888114;29;20056;-74
2023/12/21 09:35:55;;;;;;;20.05;8.43;;;4.40;99.90;;;;;;4888209;29;20044;-74
2023/12/21 09:38:20;;;;;;;16.33;6.80;;;4.50;99.90;;;;;;4888722;29;20039;-75
2023/12/21 09:40:47;;;;;;;11.70;4.95;;;4.60;99.90;;;;;;4893209;29;20039;-75
2023/12/21 09:43:16;;;;;;;8.13;4.32;;;4.60;99.90;;;;;;4874706;29;20060;-74
2023/12/21 09:45:46;;;;;;;12.20;5.05;;;4.70;99.90;;;;;;4891252;29;20086;-75
2023/12/21 09:48:15;;;;;;;11.40;5.22;;;4.70;99.90;;;;;;4893481;29;20072;-74
2023/12/21 09:50:45;;;;;;;13.90;5.95;;;4.80;99.90;;;;;;4893464;29;20134;-74
2023/12/21 09:53:15;;;;;;;12.27;5.45;;;4.70;99.90;;;;;;4891364;29;20040;-74
2023/12/21 09:55:46;;;;;;;8.82;4.22;;;4.70;99.90;;;;;;4892042;29;20046;-74
2023/12/21 09:58:12;;;;;;;6.70;3.78;;;4.60;99.90;;;;;;4894229;29;20036;-74
2023/12/21 10:00:41;;;;;;;7.18;3.33;;;4.50;99.90;;;;;;4887469;29;20373;-74
2023/12/21 10:03:07;;;;;;;6.70;3.42;;;4.60;99.90;;;;;;4891471;29;21417;-74
2023/12/21 10:05:34;;;;;;;5.93;3.10;;;4.40;99.90;;;;;;4876074;29;20554;-75
2023/12/21 10:08:00;;;;;;;8.77;3.05;;;4.30;99.90;;;;;;4891288;29;20059;-75
2023/12/21 10:10:26;;;;;;;6.45;2.97;;;4.30;99.90;;;;;;4890394;29;20036;-74
2023/12/21 10:12:52;;;;;;;5.45;3.10;;;4.40;99.90;;;;;;4891383;29;20110;-75
2023/12/21 10:15:19;;;;;;;7.75;3.10;;;4.50;99.90;;;;;;4892493;29;20578;-74
2023/12/21 10:17:45;;;;;;;5.72;2.58;;;4.60;99.90;;;;;;4892211;29;20044;-74
2023/12/21 10:20:14;;;;;;;6.90;3.00;;;4.80;99.90;;;;;;4890771;29;21671;-74
2023/12/21 10:22:41;;;;;;;4.45;1.90;;;4.90;99.50;;;;;;4892578;29;20147;-74
2023/12/21 10:25:10;;;;;;;3.83;2.08;;;5.00;99.60;;;;;;4890654;29;20060;-76
2023/12/21 10:27:37;;;;;;;4.15;1.70;;;5.10;99.50;;;;;;4892703;29;20040;-74
2023/12/21 10:30:04;;;;;;;5.35;2.13;;;5.20;99.90;;;;;;4892790;29;20043;-74
2023/12/21 10:32:30;;;;;;;4.93;2.42;;;5.30;99.90;;;;;;4891620;29;20059;-75
2023/12/21 10:34:59;;;;;;;4.93;2.40;;;5.30;99.90;;;;;;4891628;29;20044;-75
2023/12/21 10:37:25;;;;;;;5.38;2.60;;;5.30;99.90;;;;;;4891907;29;20522;-73
2023/12/21 10:39:52;;;;;;;4.20;2.45;;;5.40;99.90;;;;;;4890669;29;20055;-74
2023/12/21 10:42:18;;;;;;;6.22;2.35;;;5.30;99.90;;;;;;4889863;29;20047;-74
2023/12/21 10:44:47;;;;;;;5.03;2.45;;;5.20;99.70;;;;;;4893505;29;20067;-75
2023/12/21 10:47:15;;;;;;;4.97;2.85;;;5.20;99.10;;;;;;4890755;29;20095;-74
2023/12/21 10:49:43;;;;;;;6.15;3.22;;;5.30;99.80;;;;;;4892234;29;20094;-74
2023/12/21 10:52:11;;;;;;;9.48;4.40;;;5.30;99.90;;;;;;4889249;29;20047;-74
2023/12/21 10:54:40;;;;;;;7.45;3.20;;;5.30;99.90;;;;;;4891384;29;20068;-74
2023/12/21 10:57:07;;;;;;;5.20;2.88;;;5.30;99.90;;;;;;4890715;29;20060;-74
2023/12/21 10:59:33;;;;;;;6.32;3.25;;;5.40;99.90;;;;;;4891780;29;20806;-74
2023/12/21 11:01:59;;;;;;;9.13;4.20;;;5.50;99.90;;;;;;4888961;29;20414;-74
2023/12/21 11:04:27;;;;;;;9.35;4.72;;;5.50;99.90;;;;;;4891582;29;20551;-73
2023/12/21 11:06:54;;;;;;;10.35;5.25;;;5.40;99.90;;;;;;4889476;29;20980;-74
2023/12/21 11:09:21;;;;;;;9.60;5.30;;;5.30;99.90;;;;;;4891571;29;20043;-74
2023/12/21 11:11:48;;;;;;;9.32;4.68;;;5.30;99.90;;;;;;4891015;29;20047;-74
2023/12/21 11:14:13;;;;;;;10.65;5.63;;;5.30;99.90;;;;;;4890514;29;20052;-74
2023/12/21 11:16:50;;;;;;;10.52;6.28;;;5.40;99.90;;;;;;4893309;29;21386;-74
2023/12/21 11:19:22;;;;;;;13.55;6.40;;;5.40;99.90;;;;;;4890807;29;20082;-74
2023/12/21 11:21:49;;;;;;;13.38;6.50;;;5.50;99.90;;;;;;4890229;29;20114;-74
2023/12/21 11:24:24;;;;;;;10.80;6.43;;;5.50;99.90;;;;;;4891050;29;20047;-74
2023/12/21 11:26:51;;;;;;;50.08;30.90;;;5.60;99.90;;;;;;4890115;29;20122;-75
2023/12/21 11:29:26;;;;;;;22.52;13.27;;;5.60;99.90;;;;;;4891021;29;20044;-74
2023/12/21 11:31:53;;;;;;;24.08;13.40;;;5.70;99.90;;;;;;4890877;29;20028;-75
2023/12/21 11:34:21;;;;;;;19.15;11.25;;;5.80;99.90;;;;;;4892739;29;20094;-74
2023/12/21 11:36:49;;;;;;;20.27;11.75;;;5.70;99.90;;;;;;4893009;29;20076;-75
2023/12/21 11:39:20;;;;;;;14.95;7.28;;;5.70;99.90;;;;;;4892318;29;20037;-74
2023/12/21 11:41:50;;;;;;;15.13;9.05;;;5.70;99.90;;;;;;4892048;29;20048;-74
2023/12/21 11:44:16;;;;;;;13.65;7.80;;;5.80;99.90;;;;;;4891746;29;20070;-74
2023/12/21 11:46:42;;;;;;;15.50;6.55;;;5.90;99.90;;;;;;4894628;29;20044;-74
2023/12/21 11:49:23;;;;;;;9.38;4.80;;;6.00;99.30;;;;;;4892784;29;20582;-74
2023/12/21 11:51:50;;;;;;;10.50;5.55;;;6.10;98.60;;;;;;4893424;29;20407;-74
2023/12/21 11:54:23;;;;;;;8.52;4.88;;;6.30;98.10;;;;;;4892278;29;21656;-74
2023/12/21 11:57:12;;;;;;;10.82;6.57;;;6.40;98.60;;;;;;4893119;29;20075;-75
2023/12/21 11:59:37;;;;;;;8.95;5.88;;;6.30;99.90;;;;;;4892482;29;20032;-77
2023/12/21 12:02:06;;;;;;;12.05;6.32;;;6.20;99.90;;;;;;4890927;29;20904;-76
2023/12/21 12:04:32;;;;;;;14.73;6.18;;;6.10;99.90;;;;;;4889525;29;20047;-77
2023/12/21 12:06:58;;;;;;;10.38;5.68;;;6.00;99.90;;;;;;4890468;29;20064;-77
2023/12/21 12:09:24;;;;;;;10.98;6.25;;;6.10;99.90;;;;;;4890674;29;20111;-75
2023/12/21 12:11:51;;;;;;;10.98;6.38;;;6.10;99.90;;;;;;4889246;29;20062;-77
2023/12/21 12:14:18;;;;;;;12.60;5.68;;;6.10;99.90;;;;;;4888417;29;20446;-77
2023/12/21 12:16:44;;;;;;;8.65;5.53;;;6.10;99.90;;;;;;4891195;29;20116;-76
2023/12/21 12:19:12;;;;;;;9.95;5.75;;;6.10;99.90;;;;;;4890190;29;20062;-76
2023/12/21 12:21:39;;;;;;;10.57;5.15;;;6.10;99.90;;;;;;4888993;29;20044;-76
2023/12/21 12:24:07;;;;;;;10.88;5.22;;;6.30;99.90;;;;;;4890977;29;20114;-76
2023/12/21 12:26:36;;;;;;;9.43;5.10;;;6.30;99.90;;;;;;4872668;29;20036;-76
2023/12/21 12:29:02;;;;;;;12.38;5.38;;;6.40;99.90;;;;;;4888805;29;20797;-76
2023/12/21 12:31:28;;;;;;;9.95;5.45;;;6.50;99.80;;;;;;4887043;29;20036;-77
2023/12/21 12:33:54;;;;;;;9.40;5.70;;;6.70;99.90;;;;;;4891744;29;20047;-76
2023/12/21 12:36:20;;;;;;;8.70;5.20;;;6.70;99.60;;;;;;4889979;29;25372;-75
2023/12/21 12:38:45;;;;;;;8.45;3.95;;;6.80;98.70;;;;;;4890735;29;20044;-76
2023/12/21 12:41:20;;;;;;;8.80;4.90;;;6.80;98.50;;;;;;4890773;29;20059;-76
2023/12/21 12:43:46;;;;;;;8.02;4.65;;;6.90;98.90;;;;;;4889747;29;20077;-76
2023/12/21 12:46:16;;;;;;;8.63;5.05;;;6.90;99.20;;;;;;4888523;29;20762;-75
2023/12/21 12:48:42;;;;;;;7.82;5.15;;;6.90;99.60;;;;;;4890634;29;20036;-73
2023/12/21 12:51:11;;;;;;;13.63;5.60;;;6.80;99.90;;;;;;4889371;29;20084;-74